PIA701 OPIS-EGCC
Flight info
| Callsign | PIA701 |
|---|---|
| Flight time | N/A |
| Altitude | 34000 |
| Route | KALMI J139 HANGU G796 LAJAK L509 TAPIS M875 AMDAR/K0872F340 T186 LAPZE Z407 ODIVA M161 DENUD T784 TIRET T759 GEKPA L736 ASKIL L979 GRD L32 SOTET/N0460F340 L32 SUWGI L29 GRUDA L23 WSN N125 PREXA L602 BERGI L60 OTBED |
| Aircraft | B772/H-SDE2E3FGHIJ5LORVWXY/LB1D1 |
Departure
| Time | 2026-04-28 15:43 |
|---|---|
| Airport | Islamabad International Airport (OPIS) |
Arrival
| Time | N/A |
|---|---|
| Airport | Manchester Airport (EGCC) |
| Time | Latitude | Longitude | Altitude | Speed | Heading |
|---|---|---|---|---|---|
| 2026-04-28 15:14 | 33.55447 | 72.83258 | 1774 ft | 0 kts | 357° |
| 2026-04-28 15:28 | 33.55432 | 72.83259 | 1747 ft | 2 kts | 351° |
| 2026-04-28 15:28 | 33.55415 | 72.83263 | 1786 ft | 2 kts | 344° |
| 2026-04-28 15:28 | 33.55400 | 72.83269 | 1775 ft | 2 kts | 335° |
| 2026-04-28 15:28 | 33.55385 | 72.83279 | 1773 ft | 2 kts | 322° |
| 2026-04-28 15:29 | 33.55373 | 72.83292 | 1774 ft | 2 kts | 308° |
| 2026-04-28 15:29 | 33.55364 | 72.83309 | 1775 ft | 2 kts | 293° |
| 2026-04-28 15:29 | 33.55358 | 72.83327 | 1773 ft | 2 kts | 282° |
| 2026-04-28 15:29 | 33.55356 | 72.83345 | 1773 ft | 2 kts | 278° |
| 2026-04-28 15:30 | 33.55355 | 72.83351 | 1773 ft | 0 kts | 279° |
| 2026-04-28 15:33 | 33.55355 | 72.83350 | 1773 ft | 2 kts | 279° |
| 2026-04-28 15:34 | 33.55356 | 72.83304 | 1774 ft | 6 kts | 261° |
| 2026-04-28 15:34 | 33.55334 | 72.83260 | 1774 ft | 6 kts | 231° |
| 2026-04-28 15:34 | 33.55309 | 72.83217 | 1775 ft | 6 kts | 241° |
| 2026-04-28 15:34 | 33.55290 | 72.83170 | 1778 ft | 6 kts | 242° |
| 2026-04-28 15:35 | 33.55264 | 72.83129 | 1776 ft | 6 kts | 231° |
| 2026-04-28 15:35 | 33.55214 | 72.83042 | 1777 ft | 6 kts | 235° |
| 2026-04-28 15:35 | 33.55183 | 72.83007 | 1775 ft | 6 kts | 204° |
| 2026-04-28 15:36 | 33.55145 | 72.83025 | 1774 ft | 6 kts | 128° |
| 2026-04-28 15:36 | 33.55123 | 72.83071 | 1774 ft | 6 kts | 111° |
| 2026-04-28 15:36 | 33.55113 | 72.83123 | 1773 ft | 6 kts | 102° |
| 2026-04-28 15:36 | 33.55104 | 72.83175 | 1775 ft | 6 kts | 103° |
| 2026-04-28 15:37 | 33.55095 | 72.83228 | 1775 ft | 6 kts | 102° |
| 2026-04-28 15:37 | 33.55088 | 72.83280 | 1774 ft | 6 kts | 99° |
| 2026-04-28 15:37 | 33.55080 | 72.83332 | 1777 ft | 6 kts | 99° |
| 2026-04-28 15:37 | 33.55073 | 72.83385 | 1775 ft | 6 kts | 99° |
| 2026-04-28 15:38 | 33.55065 | 72.83437 | 1777 ft | 6 kts | 100° |
| 2026-04-28 15:38 | 33.55057 | 72.83493 | 1775 ft | 9 kts | 101° |
| 2026-04-28 15:38 | 33.55039 | 72.83605 | 1773 ft | 16 kts | 101° |
| 2026-04-28 15:38 | 33.55019 | 72.83737 | 1776 ft | 16 kts | 101° |
| 2026-04-28 15:39 | 33.54998 | 72.83869 | 1776 ft | 16 kts | 100° |
| 2026-04-28 15:39 | 33.54978 | 72.84000 | 1774 ft | 16 kts | 100° |
| 2026-04-28 15:39 | 33.54964 | 72.84133 | 1777 ft | 16 kts | 99° |
| 2026-04-28 15:39 | 33.54939 | 72.84262 | 1773 ft | 16 kts | 99° |
| 2026-04-28 15:40 | 33.54918 | 72.84391 | 1775 ft | 16 kts | 101° |
| 2026-04-28 15:40 | 33.54892 | 72.84516 | 1777 ft | 15 kts | 117° |
| 2026-04-28 15:40 | 33.54823 | 72.84543 | 1774 ft | 0 kts | 191° |
| 2026-04-28 15:41 | 33.54760 | 72.84529 | 1772 ft | 0 kts | 191° |
| 2026-04-28 15:41 | 33.54755 | 72.84527 | 1770 ft | 7 kts | 191° |
| 2026-04-28 15:41 | 33.54612 | 72.84493 | 1768 ft | 31 kts | 191° |
| 2026-04-28 15:41 | 33.54525 | 72.84445 | 1769 ft | 8 kts | 250° |
| 2026-04-28 15:42 | 33.54524 | 72.84387 | 1768 ft | 0 kts | 278° |
| 2026-04-28 15:42 | 33.54527 | 72.84365 | 1767 ft | 12 kts | 278° |
| 2026-04-28 15:42 | 33.54576 | 72.84046 | 1768 ft | 73 kts | 279° |
| 2026-04-28 15:43 | 33.54711 | 72.83186 | 1770 ft | 135 kts | 281° |
| 2026-04-28 15:43 | 33.54890 | 72.81861 | 1801 ft | 182 kts | 281° |
| 2026-04-28 15:43 | 33.55123 | 72.80339 | 2349 ft | 189 kts | 273° |
| 2026-04-28 15:43 | 33.55261 | 72.78732 | 2928 ft | 199 kts | 279° |
| 2026-04-28 15:44 | 33.55603 | 72.77157 | 3594 ft | 201 kts | 284° |
| 2026-04-28 15:44 | 33.55925 | 72.75431 | 3860 ft | 224 kts | 281° |
| 2026-04-28 15:44 | 33.56111 | 72.73499 | 3982 ft | 246 kts | 263° |
| 2026-04-28 15:44 | 33.55417 | 72.71589 | 4179 ft | 261 kts | 226° |
| 2026-04-28 15:45 | 33.54247 | 72.69877 | 4496 ft | 271 kts | 243° |
| 2026-04-28 15:45 | 33.53911 | 72.67655 | 5055 ft | 275 kts | 274° |
| 2026-04-28 15:45 | 33.54105 | 72.65366 | 5636 ft | 277 kts | 275° |
| 2026-04-28 15:45 | 33.54266 | 72.63069 | 6318 ft | 277 kts | 273° |
| 2026-04-28 15:46 | 33.54382 | 72.60761 | 6912 ft | 279 kts | 272° |
| 2026-04-28 15:46 | 33.54463 | 72.58461 | 7491 ft | 281 kts | 271° |
| 2026-04-28 15:46 | 33.54522 | 72.56109 | 8034 ft | 284 kts | 271° |
| 2026-04-28 15:46 | 33.54568 | 72.53740 | 8598 ft | 285 kts | 271° |
| 2026-04-28 15:47 | 33.54605 | 72.51374 | 9236 ft | 284 kts | 270° |
| 2026-04-28 15:47 | 33.54636 | 72.48999 | 9818 ft | 286 kts | 270° |
| 2026-04-28 15:47 | 33.54665 | 72.46611 | 10266 ft | 290 kts | 270° |
| 2026-04-28 15:47 | 33.54695 | 72.44118 | 10407 ft | 308 kts | 270° |
| 2026-04-28 15:48 | 33.54725 | 72.41465 | 10557 ft | 328 kts | 270° |
| 2026-04-28 15:48 | 33.54741 | 72.38695 | 10811 ft | 344 kts | 270° |
| 2026-04-28 15:48 | 33.54743 | 72.35799 | 11378 ft | 352 kts | 270° |
| 2026-04-28 15:48 | 33.54743 | 72.32840 | 12163 ft | 354 kts | 270° |
| 2026-04-28 15:49 | 33.54747 | 72.29891 | 13102 ft | 353 kts | 270° |
| 2026-04-28 15:49 | 33.54756 | 72.26932 | 13877 ft | 357 kts | 270° |
| 2026-04-28 15:49 | 33.54764 | 72.23935 | 14518 ft | 363 kts | 271° |
| 2026-04-28 15:49 | 33.54773 | 72.20893 | 15172 ft | 367 kts | 271° |
| 2026-04-28 15:50 | 33.54783 | 72.17814 | 15864 ft | 371 kts | 271° |
| 2026-04-28 15:50 | 33.54786 | 72.14702 | 16505 ft | 376 kts | 271° |
| 2026-04-28 15:50 | 33.54789 | 72.11596 | 17106 ft | 380 kts | 271° |
| 2026-04-28 15:50 | 33.54796 | 72.08412 | 17726 ft | 384 kts | 271° |
| 2026-04-28 15:51 | 33.54801 | 72.05190 | 18304 ft | 388 kts | 271° |
| 2026-04-28 15:51 | 33.54793 | 72.01935 | 18830 ft | 392 kts | 270° |
| 2026-04-28 15:51 | 33.54650 | 71.98657 | 19359 ft | 396 kts | 267° |
| 2026-04-28 15:51 | 33.54422 | 71.95355 | 19883 ft | 399 kts | 266° |
| 2026-04-28 15:52 | 33.54192 | 71.92025 | 20394 ft | 403 kts | 266° |
| 2026-04-28 15:52 | 33.53980 | 71.88661 | 20884 ft | 406 kts | 266° |
| 2026-04-28 15:52 | 33.53779 | 71.85313 | 21360 ft | 410 kts | 266° |
| 2026-04-28 15:52 | 33.53581 | 71.81896 | 21834 ft | 413 kts | 266° |
| 2026-04-28 15:53 | 33.53382 | 71.78445 | 22334 ft | 416 kts | 266° |
| 2026-04-28 15:53 | 33.53182 | 71.74968 | 22821 ft | 420 kts | 266° |
| 2026-04-28 15:53 | 33.52978 | 71.71459 | 23287 ft | 424 kts | 266° |
| 2026-04-28 15:53 | 33.52772 | 71.67932 | 23684 ft | 427 kts | 266° |
| 2026-04-28 15:54 | 33.52562 | 71.64368 | 24115 ft | 429 kts | 266° |
| 2026-04-28 15:54 | 33.52351 | 71.60801 | 24531 ft | 432 kts | 266° |
| 2026-04-28 15:54 | 33.52135 | 71.57190 | 24949 ft | 434 kts | 266° |
| 2026-04-28 15:54 | 33.51923 | 71.53625 | 25369 ft | 436 kts | 266° |
| 2026-04-28 15:55 | 33.51705 | 71.49983 | 25768 ft | 439 kts | 266° |
| 2026-04-28 15:55 | 33.51483 | 71.46330 | 26155 ft | 442 kts | 265° |
| 2026-04-28 15:55 | 33.51258 | 71.42645 | 26555 ft | 444 kts | 265° |
| 2026-04-28 15:55 | 33.51029 | 71.38946 | 26969 ft | 446 kts | 265° |
| 2026-04-28 15:56 | 33.50798 | 71.35230 | 27364 ft | 449 kts | 265° |
| 2026-04-28 15:56 | 33.50564 | 71.31486 | 27736 ft | 452 kts | 265° |
| 2026-04-28 15:56 | 33.50329 | 71.27726 | 28101 ft | 455 kts | 265° |
| 2026-04-28 15:56 | 33.50092 | 71.23942 | 28460 ft | 458 kts | 265° |
| 2026-04-28 15:57 | 33.49850 | 71.20126 | 28828 ft | 460 kts | 265° |
| 2026-04-28 15:57 | 33.49611 | 71.16342 | 29190 ft | 463 kts | 265° |
| 2026-04-28 15:57 | 33.49365 | 71.12480 | 29541 ft | 466 kts | 265° |
| 2026-04-28 15:57 | 33.49117 | 71.08602 | 29875 ft | 469 kts | 265° |
| 2026-04-28 15:58 | 33.49017 | 71.04703 | 30098 ft | 469 kts | 276° |
| 2026-04-28 15:58 | 33.49789 | 71.00903 | 30321 ft | 473 kts | 292° |
| 2026-04-28 15:58 | 33.51386 | 70.97458 | 30648 ft | 475 kts | 307° |
| 2026-04-28 15:58 | 33.53642 | 70.94565 | 30929 ft | 475 kts | 316° |
| 2026-04-28 15:59 | 33.56087 | 70.91877 | 31146 ft | 479 kts | 317° |
| 2026-04-28 15:59 | 33.57733 | 70.90096 | 31280 ft | 482 kts | 317° |
| 2026-04-28 15:59 | 33.61029 | 70.86518 | 31622 ft | 484 kts | 316° |
| 2026-04-28 15:59 | 33.63517 | 70.83775 | 31789 ft | 487 kts | 316° |
| 2026-04-28 16:00 | 33.68474 | 70.78214 | 31848 ft | 486 kts | 315° |
| 2026-04-28 16:00 | 33.73360 | 70.72674 | 31870 ft | 482 kts | 315° |
| 2026-04-28 16:01 | 33.78232 | 70.67143 | 31888 ft | 482 kts | 315° |
| 2026-04-28 16:01 | 33.83080 | 70.61636 | 31896 ft | 482 kts | 315° |
| 2026-04-28 16:02 | 33.87948 | 70.56102 | 31879 ft | 481 kts | 315° |
| 2026-04-28 16:02 | 33.92545 | 70.50316 | 31893 ft | 477 kts | 307° |
| 2026-04-28 16:03 | 33.96191 | 70.43682 | 31884 ft | 474 kts | 297° |
| 2026-04-28 16:03 | 33.99232 | 70.36691 | 32510 ft | 477 kts | 297° |
| 2026-04-28 16:04 | 34.00777 | 70.33110 | 32274 ft | 486 kts | 297° |
| 2026-04-28 16:04 | 34.02354 | 70.29478 | 32157 ft | 489 kts | 297° |
| 2026-04-28 16:04 | 34.05506 | 70.22273 | 32025 ft | 484 kts | 297° |
| 2026-04-28 16:05 | 34.08643 | 70.15121 | 32001 ft | 482 kts | 297° |
| 2026-04-28 16:05 | 34.11775 | 70.07965 | 32004 ft | 482 kts | 297° |
| 2026-04-28 16:06 | 34.14883 | 70.00842 | 32004 ft | 484 kts | 297° |
| 2026-04-28 16:06 | 34.18018 | 69.93645 | 32000 ft | 485 kts | 297° |
| 2026-04-28 16:07 | 34.21147 | 69.86422 | 32001 ft | 485 kts | 297° |
| 2026-04-28 16:08 | 34.25812 | 69.75608 | 32002 ft | 486 kts | 297° |
| 2026-04-28 16:08 | 34.28937 | 69.68349 | 32000 ft | 487 kts | 297° |
| 2026-04-28 16:09 | 34.33619 | 69.57444 | 32001 ft | 487 kts | 297° |
| 2026-04-28 16:10 | 34.38264 | 69.46593 | 32000 ft | 486 kts | 297° |
| 2026-04-28 16:10 | 34.42905 | 69.35713 | 31999 ft | 484 kts | 297° |
| 2026-04-28 16:11 | 34.49061 | 69.21234 | 32002 ft | 482 kts | 297° |
| 2026-04-28 16:12 | 34.53039 | 69.14825 | 32008 ft | 482 kts | 317° |
| 2026-04-28 16:12 | 34.55669 | 69.12298 | 32012 ft | 483 kts | 327° |
| 2026-04-28 16:13 | 34.64573 | 69.06572 | 32003 ft | 484 kts | 332° |
| 2026-04-28 16:14 | 34.76518 | 68.98972 | 32002 ft | 487 kts | 332° |
| 2026-04-28 16:15 | 34.86507 | 68.92481 | 32005 ft | 488 kts | 332° |